Time,TemperatureF,DewpointF,PressureIn,WindDirection,WindDirectionDegrees,WindSpeedMPH,WindSpeedGustMPH,Humidity,HourlyPrecipIn,Conditions,Clouds,dailyrainin,SoftwareType,DateUTC
2013-03-05 00:00:00,43.2,34.8,30.14,WNW,288,0.0,0.0,72,0.00,CLR,OVC,0.00,WeatherDisplay:10.37,2013-03-05 05:00:00,
2013-03-05 00:01:00,43.1,35.0,30.14,WNW,288,0.0,0.0,73,0.00,CLR,OVC,0.00,WeatherDisplay:10.37,2013-03-05 05:01:00,
2013-03-05 00:07:00,42.9,34.8,30.13,WNW,288,0.0,0.0,73,0.00,CLR,OVC,0.00,WeatherDisplay:10.37,2013-03-05 05:07:00,
2013-03-05 00:12:00,42.8,34.4,30.13,WNW,288,0.0,0.0,72,0.00,CLR,OVC,0.00,WeatherDisplay:10.37,2013-03-05 05:12:00,
2013-03-05 00:17:00,43.2,34.8,30.14,WNW,288,0.0,0.0,72,0.00,CLR,OVC,0.00,WeatherDisplay:10.37,2013-03-05 05:17:00,
2013-03-05 00:22:00,42.3,34.3,30.13,WNW,288,0.0,0.0,73,0.00,CLR,OVC,0.00,WeatherDisplay:10.37,2013-03-05 05:22:00,
2013-03-05 00:27:00,42.3,34.3,30.13,WNW,288,0.0,0.0,73,0.00,CLR,OVC,0.00,WeatherDisplay:10.37,2013-03-05 05:27:00,
2013-03-05 00:32:00,42.2,34.5,30.13,WNW,288,0.0,0.0,74,0.00,CLR,OVC,0.00,WeatherDisplay:10.37,2013-03-05 05:32:00,
2013-03-05 00:37:00,42.2,34.5,30.13,WNW,288,0.0,0.0,74,0.00,CLR,OVC,0.00,WeatherDisplay:10.37,2013-03-05 05:37:00,
2013-03-05 00:42:00,41.8,34.1,30.12,WNW,288,0.0,0.0,74,0.00,CLR,OVC,0.00,WeatherDisplay:10.37,2013-03-05 05:42:00,
2013-03-05 00:47:00,41.8,34.1,30.12,WNW,288,0.0,0.0,74,0.00,CLR,OVC,0.00,WeatherDisplay:10.37,2013-03-05 05:47:00,
2013-03-05 00:52:00,41.6,33.9,30.13,WNW,288,0.0,0.0,74,0.00,CLR,OVC,0.00,WeatherDisplay:10.37,2013-03-05 05:52:00,
2013-03-05 00:57:00,41.6,33.9,30.13,WNW,288,0.0,0.0,74,0.00,CLR,OVC,0.00,WeatherDisplay:10.37,2013-03-05 05:57:00,
2013-03-05 01:02:00,41.5,34.2,30.12,WNW,288,0.0,0.0,75,0.00,CLR,OVC,0.00,WeatherDisplay:10.37,2013-03-05 06:02:00,
2013-03-05 01:07:00,41.5,34.2,30.12,WNW,288,0.0,0.0,75,0.00,CLR,OVC,0.00,WeatherDisplay:10.37,2013-03-05 06:07:00,
2013-03-05 01:12:00,41.1,34.4,30.12,North,0,0.0,0.0,77,0.00,CLR,OVC,0.00,WeatherDisplay:10.37,2013-03-05 06:12:00,
2013-03-05 01:17:00,41.1,34.4,30.12,North,0,0.0,0.0,77,0.00,CLR,OVC,0.00,WeatherDisplay:10.37,2013-03-05 06:17:00,
2013-03-05 01:22:00,41.1,34.4,30.12,North,0,0.0,0.0,77,0.00,CLR,OVC,0.00,WeatherDisplay:10.37,2013-03-05 06:22:00,
2013-03-05 01:27:00,41.1,34.4,30.12,North,0,0.0,0.0,77,0.00,CLR,OVC,0.00,WeatherDisplay:10.37,2013-03-05 06:27:00,
2013-03-05 01:32:00,41.1,34.8,30.12,North,0,0.0,0.0,78,0.00,CLR,OVC,0.00,WeatherDisplay:10.37,2013-03-05 06:32:00,
2013-03-05 01:37:00,41.1,35.1,30.12,North,0,0.0,0.0,79,0.00,CLR,OVC,0.00,WeatherDisplay:10.37,2013-03-05 06:37:00,
2013-03-05 01:42:00,41.1,35.7,30.12,North,0,0.0,0.0,81,0.00,CLR,OVC,0.00,WeatherDisplay:10.37,2013-03-05 06:42:00,
2013-03-05 01:47:00,41.1,36.0,30.11,North,0,0.0,0.0,82,0.00,CLR,OVC,0.00,WeatherDisplay:10.37,2013-03-05 06:47:00,
2013-03-05 01:52:00,40.9,35.5,30.11,North,0,0.0,0.0,81,0.00,CLR,OVC,0.00,WeatherDisplay:10.37,2013-03-05 06:52:00,
2013-03-05 01:57:00,40.9,35.5,30.11,North,0,0.0,0.0,81,0.00,CLR,OVC,0.00,WeatherDisplay:10.37,2013-03-05 06:57:00,
2013-03-05 02:02:00,40.9,35.5,30.11,North,0,0.0,0.0,81,0.00,CLR,OVC,0.00,WeatherDisplay:10.37,2013-03-05 07:02:00,
2013-03-05 02:07:00,40.8,36.0,30.11,North,0,0.0,0.0,83,0.00,CLR,OVC,0.00,WeatherDisplay:10.37,2013-03-05 07:07:00,
2013-03-05 02:12:00,40.6,35.8,30.11,North,0,0.0,0.0,83,0.00,CLR,OVC,0.00,WeatherDisplay:10.37,2013-03-05 07:12:00,
2013-03-05 02:17:00,40.6,35.8,30.11,North,0,0.0,0.0,83,0.00,CLR,OVC,0.00,WeatherDisplay:10.37,2013-03-05 07:17:00,
2013-03-05 02:22:00,40.6,35.8,30.11,North,0,0.0,0.0,83,0.00,CLR,OVC,0.00,WeatherDisplay:10.37,2013-03-05 07:22:00,
2013-03-05 02:27:00,40.6,35.8,30.11,North,0,0.0,0.0,83,0.00,CLR,OVC,0.00,WeatherDisplay:10.37,2013-03-05 07:27:00,
2013-03-05 02:32:00,40.6,35.8,30.11,North,0,0.0,0.0,83,0.00,CLR,OVC,0.00,WeatherDisplay:10.37,2013-03-05 07:32:00,
2013-03-05 02:37:00,40.8,36.9,30.11,North,0,0.0,0.0,86,0.00,CLR,OVC,0.00,WeatherDisplay:10.37,2013-03-05 07:37:00,
2013-03-05 02:42:00,40.6,35.8,30.11,North,0,0.0,0.0,83,0.00,CLR,OVC,0.00,WeatherDisplay:10.37,2013-03-05 07:42:00,
2013-03-05 02:47:00,40.6,36.4,30.11,North,0,0.0,0.0,85,0.00,CLR,OVC,0.00,WeatherDisplay:10.37,2013-03-05 07:47:00,
2013-03-05 02:52:00,40.3,36.1,30.10,North,0,0.0,0.0,85,0.00,CLR,OVC,0.00,WeatherDisplay:10.37,2013-03-05 07:52:00,
2013-03-05 02:57:00,40.3,36.1,30.10,North,0,0.0,0.0,85,0.00,CLR,OVC,0.00,WeatherDisplay:10.37,2013-03-05 07:57:00,
2013-03-05 03:02:00,40.1,36.0,30.10,North,0,0.0,0.0,85,0.00,CLR,OVC,0.00,WeatherDisplay:10.37,2013-03-05 08:02:00,
2013-03-05 03:07:00,40.3,36.4,30.10,North,0,0.0,0.0,86,0.00,CLR,OVC,0.00,WeatherDisplay:10.37,2013-03-05 08:07:00,
2013-03-05 03:12:00,39.9,35.8,30.10,North,0,0.0,0.0,85,0.00,CLR,OVC,0.00,WeatherDisplay:10.37,2013-03-05 08:12:00,
2013-03-05 03:18:00,39.8,36.0,30.10,North,0,0.0,0.0,86,0.00,CLR,OVC,0.00,WeatherDisplay:10.37,2013-03-05 08:18:00,
2013-03-05 03:23:00,39.8,36.0,30.10,North,0,0.0,0.0,86,0.00,CLR,OVC,0.00,WeatherDisplay:10.37,2013-03-05 08:23:00,
2013-03-05 03:28:00,39.6,36.0,30.10,North,0,0.0,0.0,87,0.00,CLR,OVC,0.00,WeatherDisplay:10.37,2013-03-05 08:28:00,
2013-03-05 03:33:00,39.8,36.0,30.10,North,0,0.0,0.0,86,0.00,CLR,OVC,0.00,WeatherDisplay:10.37,2013-03-05 08:33:00,
2013-03-05 03:38:00,39.8,36.2,30.10,North,0,0.0,0.0,87,0.00,CLR,OVC,0.00,WeatherDisplay:10.37,2013-03-05 08:38:00,
2013-03-05 03:43:00,39.8,36.2,30.10,North,0,0.0,0.0,87,0.00,CLR,OVC,0.00,WeatherDisplay:10.37,2013-03-05 08:43:00,
2013-03-05 03:48:00,40.1,37.1,30.10,North,0,0.0,0.0,89,0.00,CLR,OVC,0.00,WeatherDisplay:10.37,2013-03-05 08:48:00,
2013-03-05 03:53:00,40.1,37.1,30.09,North,0,0.0,0.0,89,0.00,CLR,OVC,0.00,WeatherDisplay:10.37,2013-03-05 08:53:00,
2013-03-05 03:58:00,39.9,36.9,30.09,SSE,161,0.0,0.0,89,0.00,CLR,OVC,0.00,WeatherDisplay:10.37,2013-03-05 08:58:00,
2013-03-05 04:03:00,42.5,40.6,30.09,South,186,5.3,12.0,93,0.00,CLR,OVC,0.00,WeatherDisplay:10.37,2013-03-05 09:03:00,
2013-03-05 04:08:00,42.8,40.9,30.09,SSW,196,9.1,9.1,93,0.00,CLR,OVC,0.00,WeatherDisplay:10.37,2013-03-05 09:08:00,
2013-03-05 04:13:00,46.5,42.5,30.09,South,189,1.8,3.5,86,0.00,CLR,OVC,0.00,WeatherDisplay:10.37,2013-03-05 09:13:00,
2013-03-05 04:18:00,46.5,42.5,30.09,South,189,1.8,1.8,86,0.00,CLR,OVC,0.00,WeatherDisplay:10.37,2013-03-05 09:18:00,
2013-03-05 04:23:00,48.2,42.0,30.10,South,182,1.0,1.1,79,0.00,CLR,OVC,0.00,WeatherDisplay:10.37,2013-03-05 09:23:00,
2013-03-05 04:28:00,48.6,41.7,30.10,South,181,0.8,1.1,77,0.00,CLR,OVC,0.00,WeatherDisplay:10.37,2013-03-05 09:28:00,
2013-03-05 04:33:00,48.6,41.7,30.10,South,181,0.8,0.0,77,0.00,CLR,OVC,0.00,WeatherDisplay:10.37,2013-03-05 09:33:00,
2013-03-05 04:38:00,48.6,41.7,30.10,South,181,0.8,0.0,77,0.00,CLR,OVC,0.00,WeatherDisplay:10.37,2013-03-05 09:38:00,
2013-03-05 04:43:00,49.1,41.9,30.10,SSW,198,1.3,2.3,76,0.00,CLR,OVC,0.00,WeatherDisplay:10.37,2013-03-05 09:43:00,
2013-03-05 04:48:00,48.9,41.7,30.10,South,191,2.0,3.5,76,0.00,CLR,OVC,0.00,WeatherDisplay:10.37,2013-03-05 09:48:00,
2013-03-05 04:53:00,48.8,41.6,30.10,SSW,193,4.9,4.9,76,0.00,CLR,OVC,0.00,WeatherDisplay:10.37,2013-03-05 09:53:00,
2013-03-05 04:58:00,48.9,41.7,30.10,South,191,2.0,3.5,76,0.00,CLR,OVC,0.00,WeatherDisplay:10.37,2013-03-05 09:58:00,
2013-03-05 05:03:00,48.8,41.9,30.11,SSW,196,2.0,0.0,77,0.00,CLR,OVC,0.00,WeatherDisplay:10.37,2013-03-05 10:03:00,
2013-03-05 05:08:00,47.7,42.2,30.11,SSW,198,0.0,0.0,81,0.00,CLR,OVC,0.00,WeatherDisplay:10.37,2013-03-05 10:08:00,
2013-03-05 05:13:00,47.7,42.2,30.11,SSW,198,0.0,0.0,81,0.00,CLR,OVC,0.00,WeatherDisplay:10.37,2013-03-05 10:13:00,
2013-03-05 05:18:00,47.1,41.6,30.12,SSW,192,1.3,2.3,81,0.00,CLR,OVC,0.00,WeatherDisplay:10.37,2013-03-05 10:18:00,
2013-03-05 05:23:00,46.8,41.3,30.12,SSW,192,0.7,1.1,81,0.00,CLR,OVC,0.00,WeatherDisplay:10.37,2013-03-05 10:23:00,
2013-03-05 05:28:00,47.6,42.1,30.11,SSW,196,0.0,2.3,81,0.00,CLR,OVC,0.00,WeatherDisplay:10.37,2013-03-05 10:28:00,
2013-03-05 05:33:00,47.6,42.1,30.11,SSW,196,0.0,2.3,81,0.00,CLR,OVC,0.00,WeatherDisplay:10.37,2013-03-05 10:33:00,
2013-03-05 05:38:00,46.5,41.0,30.11,SSW,193,1.6,3.5,81,0.00,CLR,OVC,0.00,WeatherDisplay:10.37,2013-03-05 10:38:00,
2013-03-05 05:43:00,46.5,41.0,30.11,SSW,193,4.0,4.0,81,0.00,CLR,OVC,0.00,WeatherDisplay:10.37,2013-03-05 10:43:00,
2013-03-05 05:48:00,46.7,41.2,30.12,SSW,195,4.0,4.6,81,0.00,CLR,OVC,0.00,WeatherDisplay:10.37,2013-03-05 10:48:00,
2013-03-05 05:53:00,47.0,41.1,30.12,South,191,3.0,3.5,80,0.00,CLR,OVC,0.00,WeatherDisplay:10.37,2013-03-05 10:53:00,
2013-03-05 05:58:00,47.1,41.6,30.12,SSW,193,1.0,1.1,81,0.00,CLR,OVC,0.00,WeatherDisplay:10.37,2013-03-05 10:58:00,
2013-03-05 06:03:00,47.0,41.1,30.12,South,186,0.0,0.0,80,0.00,CLR,OVC,0.00,WeatherDisplay:10.37,2013-03-05 11:03:00,
2013-03-05 06:08:00,47.3,41.8,30.12,SSW,192,0.0,0.0,81,0.00,CLR,OVC,0.00,WeatherDisplay:10.37,2013-03-05 11:08:00,
2013-03-05 06:13:00,47.4,41.9,30.12,SSW,192,0.0,0.0,81,0.00,CLR,OVC,0.00,WeatherDisplay:10.37,2013-03-05 11:13:00,
2013-03-05 06:18:00,47.4,41.9,30.12,SSW,192,0.0,0.0,81,0.00,CLR,OVC,0.00,WeatherDisplay:10.37,2013-03-05 11:18:00,
2013-03-05 06:23:00,47.4,41.9,30.12,SSW,192,0.0,0.0,81,0.00,CLR,OVC,0.00,WeatherDisplay:10.37,2013-03-05 11:23:00,
2013-03-05 06:28:00,47.6,42.1,30.13,SSW,192,0.0,0.0,81,0.00,CLR,OVC,0.00,WeatherDisplay:10.37,2013-03-05 11:28:00,
2013-03-05 06:33:00,47.0,42.1,30.13,SSW,192,0.0,0.0,83,0.00,CLR,OVC,0.00,WeatherDisplay:10.37,2013-03-05 11:33:00,
2013-03-05 06:38:00,46.7,41.8,30.13,SSW,192,0.0,0.0,83,0.00,CLR,OVC,0.00,WeatherDisplay:10.37,2013-03-05 11:38:00,
2013-03-05 06:43:00,46.7,41.8,30.13,SSW,192,0.0,0.0,83,0.00,CLR,OVC,0.00,WeatherDisplay:10.37,2013-03-05 11:43:00,
2013-03-05 06:48:00,46.7,41.8,30.13,SSW,192,0.0,0.0,83,0.00,CLR,OVC,0.00,WeatherDisplay:10.37,2013-03-05 11:48:00,
2013-03-05 06:53:00,46.7,41.8,30.13,SSW,192,0.0,0.0,83,0.00,CLR,OVC,0.00,WeatherDisplay:10.37,2013-03-05 11:53:00,
2013-03-05 06:58:00,46.7,41.8,30.13,SSW,192,0.0,0.0,83,0.00,CLR,OVC,0.00,WeatherDisplay:10.37,2013-03-05 11:58:00,
2013-03-05 07:03:00,47.6,42.4,30.13,South,185,0.0,0.0,82,0.00,CLR,OVC,0.00,WeatherDisplay:10.37,2013-03-05 12:03:00,
2013-03-05 07:08:00,48.5,42.6,30.14,SSE,154,0.0,0.0,80,0.00,CLR,OVC,0.00,WeatherDisplay:10.37,2013-03-05 12:08:00,
2013-03-05 07:13:00,48.9,42.3,30.14,South,186,0.0,0.0,78,0.00,CLR,OVC,0.00,WeatherDisplay:10.37,2013-03-05 12:13:00,
2013-03-05 07:18:00,48.8,42.6,30.14,South,178,0.0,1.1,79,0.00,CLR,OVC,0.00,WeatherDisplay:10.37,2013-03-05 12:18:00,
2013-03-05 07:23:00,49.5,42.9,30.14,South,178,1.0,1.1,78,0.00,CLR,OVC,0.00,WeatherDisplay:10.37,2013-03-05 12:23:00,
2013-03-05 07:28:00,49.5,42.9,30.14,South,178,1.0,1.1,78,0.00,CLR,OVC,0.00,WeatherDisplay:10.37,2013-03-05 12:28:00,
2013-03-05 07:33:00,50.1,43.2,30.14,South,186,1.0,1.1,77,0.00,CLR,OVC,0.00,WeatherDisplay:10.37,2013-03-05 12:33:00,
2013-03-05 07:38:00,50.5,43.2,30.14,South,176,0.0,1.1,76,0.00,CLR,OVC,0.00,WeatherDisplay:10.37,2013-03-05 12:38:00,
2013-03-05 07:43:00,50.7,43.1,30.14,South,185,1.0,4.6,75,0.00,CLR,OVC,0.00,WeatherDisplay:10.37,2013-03-05 12:43:00,
2013-03-05 07:48:00,51.4,43.7,30.14,South,175,0.2,3.0,75,0.00,CLR,OVC,0.00,WeatherDisplay:10.37,2013-03-05 12:48:00,
2013-03-05 07:53:00,51.4,43.7,30.14,South,175,0.2,3.5,75,0.00,CLR,OVC,0.00,WeatherDisplay:10.37,2013-03-05 12:53:00,
2013-03-05 07:58:00,51.4,43.7,30.14,South,175,0.2,3.5,75,0.00,CLR,OVC,0.00,WeatherDisplay:10.37,2013-03-05 12:58:00,
2013-03-05 08:03:00,52.5,43.7,30.15,SSW,200,3.0,8.1,72,0.00,CLR,OVC,0.00,WeatherDisplay:10.37,2013-03-05 13:03:00,
2013-03-05 08:08:00,53.2,44.0,30.15,SSW,203,5.0,5.0,71,0.00,CLR,OVC,0.00,WeatherDisplay:10.37,2013-03-05 13:08:00,
2013-03-05 08:13:00,53.2,44.0,30.15,SSW,203,5.0,5.0,71,0.00,CLR,OVC,0.00,WeatherDisplay:10.37,2013-03-05 13:13:00,
2013-03-05 08:18:00,53.8,43.1,30.14,SSW,196,6.3,6.3,67,0.00,CLR,OVC,0.00,WeatherDisplay:10.37,2013-03-05 13:18:00,
2013-03-05 08:23:00,54.5,43.4,30.14,SSW,192,5.0,5.0,66,0.00,CLR,OVC,0.00,WeatherDisplay:10.37,2013-03-05 13:23:00,
2013-03-05 08:28:00,55.0,43.0,30.14,SSW,198,10.0,10.4,64,0.00,CLR,OVC,0.00,WeatherDisplay:10.37,2013-03-05 13:28:00,
2013-03-05 08:33:00,55.0,43.0,30.14,SSW,198,10.0,10.0,64,0.00,CLR,OVC,0.00,WeatherDisplay:10.37,2013-03-05 13:33:00,
2013-03-05 08:38:00,55.7,42.5,30.15,SSW,198,9.0,9.2,61,0.00,CLR,OVC,0.00,WeatherDisplay:10.37,2013-03-05 13:38:00,
2013-03-05 08:43:00,56.2,42.9,30.15,South,184,2.0,2.3,61,0.00,CLR,OVC,0.00,WeatherDisplay:10.37,2013-03-05 13:43:00,
2013-03-05 08:48:00,55.0,43.0,30.14,SSW,198,10.0,10.0,64,0.00,CLR,OVC,0.00,WeatherDisplay:10.37,2013-03-05 13:48:00,
2013-03-05 08:53:00,56.6,42.4,30.16,SSW,198,1.0,1.1,59,0.00,CLR,OVC,0.00,WeatherDisplay:10.37,2013-03-05 13:53:00,
2013-03-05 08:58:00,56.9,41.8,30.16,SSW,196,6.0,6.0,57,0.00,CLR,OVC,0.00,WeatherDisplay:10.37,2013-03-05 13:58:00,
2013-03-05 09:03:00,56.6,42.4,30.16,SSW,198,1.0,1.1,59,0.00,CLR,OVC,0.00,WeatherDisplay:10.37,2013-03-05 14:03:00,
2013-03-05 09:08:00,57.8,41.7,30.16,SSW,205,3.7,8.1,55,0.00,CLR,OVC,0.00,WeatherDisplay:10.37,2013-03-05 14:08:00,
2013-03-05 09:13:00,57.8,41.7,30.16,SSW,205,3.7,8.1,55,0.00,CLR,OVC,0.00,WeatherDisplay:10.37,2013-03-05 14:13:00,
2013-03-05 09:18:00,58.4,41.8,30.16,SSW,210,0.3,3.5,54,0.00,CLR,OVC,0.00,WeatherDisplay:10.37,2013-03-05 14:18:00,
2013-03-05 09:23:00,58.7,41.6,30.16,SSW,210,1.6,3.5,53,0.00,CLR,OVC,0.00,WeatherDisplay:10.37,2013-03-05 14:23:00,
2013-03-05 09:28:00,59.8,42.1,30.16,SSW,210,1.0,5.0,52,0.00,CLR,OVC,0.00,WeatherDisplay:10.37,2013-03-05 14:28:00,
2013-03-05 09:33:00,60.2,41.5,30.16,SSW,200,4.6,4.6,50,0.00,CLR,OVC,0.00,WeatherDisplay:10.37,2013-03-05 14:33:00,
2013-03-05 09:38:00,60.2,41.5,30.16,SSW,200,4.6,4.6,50,0.00,CLR,OVC,0.00,WeatherDisplay:10.37,2013-03-05 14:38:00,
2013-03-05 09:43:00,61.2,41.3,30.16,SSW,210,2.1,3.5,48,0.00,CLR,OVC,0.00,WeatherDisplay:10.37,2013-03-05 14:43:00,
2013-03-05 09:48:00,61.5,42.2,30.16,SW,234,1.5,3.5,49,0.00,CLR,OVC,0.00,WeatherDisplay:10.37,2013-03-05 14:48:00,
2013-03-05 09:53:00,61.5,42.2,30.16,SW,234,1.5,3.5,49,0.00,CLR,OVC,0.00,WeatherDisplay:10.37,2013-03-05 14:53:00,
2013-03-05 09:58:00,62.7,41.6,30.16,SSW,200,2.6,11.5,46,0.00,CLR,OVC,0.00,WeatherDisplay:10.37,2013-03-05 14:58:00,
2013-03-05 10:03:00,62.7,41.6,30.16,SSW,200,2.6,11.5,46,0.00,CLR,OVC,0.00,WeatherDisplay:10.37,2013-03-05 15:03:00,
2013-03-05 10:08:00,63.4,41.7,30.15,WSW,241,6.0,6.0,45,0.00,CLR,OVC,0.00,WeatherDisplay:10.37,2013-03-05 15:08:00,
2013-03-05 10:13:00,63.7,41.4,30.15,WSW,243,3.7,6.9,44,0.00,CLR,OVC,0.00,WeatherDisplay:10.37,2013-03-05 15:13:00,
2013-03-05 10:18:00,63.7,41.4,30.15,WSW,243,3.7,6.9,44,0.00,CLR,OVC,0.00,WeatherDisplay:10.37,2013-03-05 15:18:00,
2013-03-05 10:23:00,65.2,41.5,30.15,SW,216,13.0,13.0,42,0.00,CLR,OVC,0.00,WeatherDisplay:10.37,2013-03-05 15:23:00,
2013-03-05 10:28:00,65.2,41.5,30.15,SW,216,13.0,13.0,42,0.00,CLR,OVC,0.00,WeatherDisplay:10.37,2013-03-05 15:28:00,
2013-03-05 10:33:00,65.3,41.0,30.15,SSW,213,6.0,8.1,41,0.00,CLR,OVC,0.00,WeatherDisplay:10.37,2013-03-05 15:33:00,
2013-03-05 10:38:00,65.3,41.0,30.15,SSW,213,6.0,8.1,41,0.00,CLR,OVC,0.00,WeatherDisplay:10.37,2013-03-05 15:38:00,
2013-03-05 10:43:00,66.4,41.3,30.14,WNW,295,6.0,8.0,40,0.00,CLR,OVC,0.00,WeatherDisplay:10.37,2013-03-05 15:43:00,
2013-03-05 10:48:00,66.4,42.6,30.14,NW,318,2.9,3.5,42,0.00,CLR,OVC,0.00,WeatherDisplay:10.37,2013-03-05 15:48:00,
2013-03-05 10:53:00,66.8,43.0,30.13,SW,236,1.0,5.8,42,0.00,CLR,OVC,0.00,WeatherDisplay:10.37,2013-03-05 15:53:00,
2013-03-05 10:58:00,67.3,42.8,30.14,WSW,239,6.0,6.0,41,0.00,CLR,OVC,0.00,WeatherDisplay:10.37,2013-03-05 15:58:00,
2013-03-05 11:03:00,67.3,42.1,30.14,WSW,257,6.0,6.0,40,0.00,CLR,OVC,0.00,WeatherDisplay:10.37,2013-03-05 16:03:00,
2013-03-05 11:08:00,67.3,42.1,30.14,WSW,257,6.0,6.0,40,0.00,CLR,OVC,0.00,WeatherDisplay:10.37,2013-03-05 16:08:00,
2013-03-05 11:13:00,67.3,41.5,30.14,West,265,7.5,7.5,39,0.00,CLR,OVC,0.00,WeatherDisplay:10.37,2013-03-05 16:13:00,
2013-03-05 11:18:00,67.6,41.7,30.13,SSW,213,7.6,10.4,39,0.00,CLR,OVC,0.00,WeatherDisplay:10.37,2013-03-05 16:18:00,
2013-03-05 11:23:00,68.4,41.1,30.13,WNW,294,7.0,7.0,37,0.00,CLR,OVC,0.00,WeatherDisplay:10.37,2013-03-05 16:23:00,
2013-03-05 11:28:00,66.9,41.1,30.14,WNW,296,5.1,6.9,39,0.00,CLR,OVC,0.00,WeatherDisplay:10.37,2013-03-05 16:28:00,
2013-03-05 11:33:00,69.1,41.7,30.13,West,268,7.0,7.0,37,0.00,CLR,OVC,0.00,WeatherDisplay:10.37,2013-03-05 16:33:00,
2013-03-05 11:38:00,69.6,42.9,30.13,SW,215,6.0,10.0,38,0.00,CLR,OVC,0.00,WeatherDisplay:10.37,2013-03-05 16:38:00,
2013-03-05 11:43:00,70.3,42.8,30.13,WNW,301,7.0,10.4,37,0.00,CLR,OVC,0.00,WeatherDisplay:10.37,2013-03-05 16:43:00,
2013-03-05 11:48:00,70.3,42.8,30.13,WNW,301,7.0,7.0,37,0.00,CLR,OVC,0.00,WeatherDisplay:10.37,2013-03-05 16:48:00,
2013-03-05 11:53:00,69.4,42.7,30.13,West,264,5.0,10.4,38,0.00,CLR,OVC,0.00,WeatherDisplay:10.37,2013-03-05 16:53:00,
2013-03-05 11:58:00,69.4,42.7,30.13,West,264,5.0,10.4,38,0.00,CLR,OVC,0.00,WeatherDisplay:10.37,2013-03-05 16:58:00,
2013-03-05 12:03:00,69.4,42.7,30.13,West,264,5.0,10.4,38,0.00,CLR,OVC,0.00,WeatherDisplay:10.37,2013-03-05 17:03:00,
2013-03-05 12:08:00,69.8,42.3,30.13,West,267,6.0,6.0,37,0.00,CLR,OVC,0.00,WeatherDisplay:10.37,2013-03-05 17:08:00,
2013-03-05 12:13:00,69.8,42.3,30.13,West,267,6.0,6.0,37,0.00,CLR,OVC,0.00,WeatherDisplay:10.37,2013-03-05 17:13:00,
2013-03-05 12:18:00,70.6,43.1,30.11,WNW,299,1.0,5.8,37,0.00,CLR,OVC,0.00,WeatherDisplay:10.37,2013-03-05 17:18:00,
2013-03-05 12:23:00,70.9,42.6,30.11,SW,236,5.8,6.9,36,0.00,CLR,OVC,0.00,WeatherDisplay:10.37,2013-03-05 17:23:00,
2013-03-05 12:28:00,70.6,43.1,30.11,West,261,6.7,6.7,37,0.00,CLR,OVC,0.00,WeatherDisplay:10.37,2013-03-05 17:28:00,
2013-03-05 12:33:00,71.1,42.8,30.11,West,278,1.2,3.5,36,0.00,CLR,OVC,0.00,WeatherDisplay:10.37,2013-03-05 17:33:00,
2013-03-05 12:38:00,71.1,42.8,30.11,West,278,1.2,1.2,36,0.00,CLR,OVC,0.00,WeatherDisplay:10.37,2013-03-05 17:38:00,
2013-03-05 12:43:00,71.5,43.8,30.11,WNW,288,0.7,4.6,37,0.00,CLR,OVC,0.00,WeatherDisplay:10.37,2013-03-05 17:43:00,
2013-03-05 12:48:00,72.1,44.4,30.11,SW,216,5.0,5.0,37,0.00,CLR,OVC,0.00,WeatherDisplay:10.37,2013-03-05 17:48:00,
2013-03-05 12:53:00,71.8,42.7,30.11,WSW,254,0.0,6.9,35,0.00,CLR,OVC,0.00,WeatherDisplay:10.37,2013-03-05 17:53:00,
2013-03-05 12:58:00,71.8,42.7,30.11,WSW,254,0.0,6.9,35,0.00,CLR,OVC,0.00,WeatherDisplay:10.37,2013-03-05 17:58:00,
2013-03-05 13:03:00,72.1,44.4,30.09,SSW,210,6.0,15.0,37,0.00,CLR,OVC,0.00,WeatherDisplay:10.37,2013-03-05 18:03:00,
2013-03-05 13:08:00,71.8,42.7,30.11,WSW,254,0.0,6.9,35,0.00,CLR,OVC,0.00,WeatherDisplay:10.37,2013-03-05 18:08:00,
2013-03-05 13:13:00,72.1,44.4,30.09,SSW,210,6.0,15.0,37,0.00,CLR,OVC,0.00,WeatherDisplay:10.37,2013-03-05 18:13:00,
2013-03-05 13:18:00,72.8,42.8,30.08,NW,304,15.0,15.0,34,0.00,CLR,OVC,0.00,WeatherDisplay:10.37,2013-03-05 18:18:00,
2013-03-05 13:23:00,73.0,43.7,30.08,West,268,8.1,8.1,35,0.00,CLR,OVC,0.00,WeatherDisplay:10.37,2013-03-05 18:23:00,
2013-03-05 13:28:00,72.5,44.0,30.07,West,263,9.0,9.0,36,0.00,CLR,OVC,0.00,WeatherDisplay:10.37,2013-03-05 18:28:00,
2013-03-05 13:33:00,73.0,43.0,30.07,WSW,254,5.0,6.9,34,0.00,CLR,OVC,0.00,WeatherDisplay:10.37,2013-03-05 18:33:00,
2013-03-05 13:38:00,73.9,43.0,30.07,West,271,6.5,6.9,33,0.00,CLR,OVC,0.00,WeatherDisplay:10.37,2013-03-05 18:38:00,
2013-03-05 13:43:00,73.9,43.0,30.07,West,271,6.5,6.9,33,0.00,CLR,OVC,0.00,WeatherDisplay:10.37,2013-03-05 18:43:00,
2013-03-05 13:48:00,73.9,43.8,30.06,WSW,251,6.0,6.9,34,0.00,CLR,OVC,0.00,WeatherDisplay:10.37,2013-03-05 18:48:00,
2013-03-05 13:53:00,73.9,43.8,30.06,WSW,251,6.0,6.0,34,0.00,CLR,OVC,0.00,WeatherDisplay:10.37,2013-03-05 18:53:00,
2013-03-05 13:58:00,74.4,42.6,30.06,SSW,196,7.1,7.1,32,0.00,CLR,OVC,0.00,WeatherDisplay:10.37,2013-03-05 18:58:00,
2013-03-05 14:03:00,74.0,43.8,30.06,WNW,295,9.4,9.4,34,0.00,CLR,OVC,0.00,WeatherDisplay:10.37,2013-03-05 19:03:00,
2013-03-05 14:08:00,73.7,43.6,30.06,SSW,205,8.0,9.2,34,0.00,CLR,OVC,0.00,WeatherDisplay:10.37,2013-03-05 19:08:00,
2013-03-05 14:13:00,74.4,45.0,30.05,West,281,7.0,11.5,35,0.00,CLR,OVC,0.00,WeatherDisplay:10.37,2013-03-05 19:13:00,
2013-03-05 14:18:00,74.4,44.2,30.05,WNW,288,9.0,17.3,34,0.00,CLR,OVC,0.00,WeatherDisplay:10.37,2013-03-05 19:18:00,
2013-03-05 14:23:00,74.4,42.6,30.04,WNW,292,17.0,17.3,32,0.00,CLR,OVC,0.00,WeatherDisplay:10.37,2013-03-05 19:23:00,
2013-03-05 14:28:00,74.4,44.2,30.04,WNW,289,7.0,7.0,34,0.00,CLR,OVC,0.00,WeatherDisplay:10.37,2013-03-05 19:28:00,
2013-03-05 14:33:00,74.6,44.4,30.04,West,275,8.0,9.2,34,0.00,CLR,OVC,0.00,WeatherDisplay:10.37,2013-03-05 19:33:00,
2013-03-05 14:38:00,74.2,44.0,30.04,West,260,8.7,9.2,34,0.00,CLR,OVC,0.00,WeatherDisplay:10.37,2013-03-05 19:38:00,
2013-03-05 14:43:00,74.7,46.0,30.03,WSW,253,8.0,8.0,36,0.00,CLR,OVC,0.00,WeatherDisplay:10.37,2013-03-05 19:43:00,
2013-03-05 14:48:00,75.3,45.7,30.03,NW,306,2.0,8.1,35,0.00,CLR,OVC,0.00,WeatherDisplay:10.37,2013-03-05 19:48:00,
2013-03-05 14:53:00,75.1,44.8,30.04,WNW,299,12.0,12.0,34,0.00,CLR,OVC,0.00,WeatherDisplay:10.37,2013-03-05 19:53:00,
2013-03-05 14:58:00,74.9,43.8,30.04,WNW,285,5.0,5.0,33,0.00,CLR,OVC,0.00,WeatherDisplay:10.37,2013-03-05 19:58:00,
2013-03-05 15:03:00,74.9,44.6,30.04,WSW,251,2.0,4.6,34,0.00,CLR,OVC,0.00,WeatherDisplay:10.37,2013-03-05 20:03:00,
2013-03-05 15:08:00,74.9,43.8,30.04,WNW,285,5.0,5.0,33,0.00,CLR,OVC,0.00,WeatherDisplay:10.37,2013-03-05 20:08:00,
2013-03-05 15:13:00,74.9,43.8,30.04,WNW,285,5.0,5.0,33,0.00,CLR,OVC,0.00,WeatherDisplay:10.37,2013-03-05 20:13:00,
2013-03-05 15:18:00,75.1,44.0,30.04,WNW,282,8.9,11.5,33,0.00,CLR,OVC,0.00,WeatherDisplay:10.37,2013-03-05 20:18:00,
2013-03-05 15:23:00,75.4,44.3,30.04,West,265,9.0,9.2,33,0.00,CLR,OVC,0.00,WeatherDisplay:10.37,2013-03-05 20:23:00,
2013-03-05 15:28:00,75.6,42.0,30.04,West,275,10.0,10.4,30,0.00,CLR,OVC,0.00,WeatherDisplay:10.37,2013-03-05 20:28:00,
2013-03-05 15:33:00,75.6,42.0,30.04,West,275,10.0,10.0,30,0.00,CLR,OVC,0.00,WeatherDisplay:10.37,2013-03-05 20:33:00,
2013-03-05 15:38:00,75.6,42.0,30.04,West,275,10.0,10.0,30,0.00,CLR,OVC,0.00,WeatherDisplay:10.37,2013-03-05 20:38:00,
2013-03-05 15:43:00,76.0,40.5,30.03,SW,234,13.6,13.6,28,0.00,CLR,OVC,0.00,WeatherDisplay:10.37,2013-03-05 20:43:00,
2013-03-05 15:48:00,76.3,42.6,30.04,WSW,250,0.0,4.6,30,0.00,CLR,OVC,0.00,WeatherDisplay:10.37,2013-03-05 20:48:00,
2013-03-05 15:53:00,76.0,40.5,30.03,SW,234,13.6,13.6,28,0.00,CLR,OVC,0.00,WeatherDisplay:10.37,2013-03-05 20:53:00,
2013-03-05 15:58:00,76.1,43.3,30.03,West,268,5.0,9.0,31,0.00,CLR,OVC,0.00,WeatherDisplay:10.37,2013-03-05 20:58:00,
2013-03-05 16:03:00,76.3,43.4,30.03,WSW,250,7.0,7.0,31,0.00,CLR,OVC,0.00,WeatherDisplay:10.37,2013-03-05 21:03:00,
2013-03-05 16:08:00,76.1,42.4,30.04,WSW,237,6.0,6.0,30,0.00,CLR,OVC,0.00,WeatherDisplay:10.37,2013-03-05 21:08:00,
2013-03-05 16:14:00,76.1,42.4,30.04,WSW,237,6.0,11.5,30,0.00,CLR,OVC,0.00,WeatherDisplay:10.37,2013-03-05 21:14:00,
2013-03-05 16:19:00,75.4,45.1,30.03,WNW,299,11.0,11.5,34,0.00,CLR,OVC,0.00,WeatherDisplay:10.37,2013-03-05 21:19:00,
2013-03-05 16:24:00,75.4,45.1,30.03,WNW,299,11.0,11.0,34,0.00,CLR,OVC,0.00,WeatherDisplay:10.37,2013-03-05 21:24:00,
2013-03-05 16:29:00,75.4,45.1,30.03,WNW,298,7.0,11.5,34,0.00,CLR,OVC,0.00,WeatherDisplay:10.37,2013-03-05 21:29:00,
2013-03-05 16:34:00,75.1,45.6,30.03,WSW,246,7.0,7.0,35,0.00,CLR,OVC,0.00,WeatherDisplay:10.37,2013-03-05 21:34:00,
2013-03-05 16:39:00,75.3,45.7,30.03,SW,229,5.3,10.4,35,0.00,CLR,OVC,0.00,WeatherDisplay:10.37,2013-03-05 21:39:00,
2013-03-05 16:44:00,75.8,44.6,30.03,WSW,250,10.0,10.0,33,0.00,CLR,OVC,0.00,WeatherDisplay:10.37,2013-03-05 21:44:00,
2013-03-05 16:49:00,75.1,45.6,30.03,WNW,302,14.0,14.0,35,0.00,CLR,OVC,0.00,WeatherDisplay:10.37,2013-03-05 21:49:00,
2013-03-05 16:54:00,75.6,45.2,30.03,SSW,209,12.0,12.0,34,0.00,CLR,OVC,0.00,WeatherDisplay:10.37,2013-03-05 21:54:00,
2013-03-05 16:59:00,76.1,46.5,30.03,SW,236,6.0,6.9,35,0.00,CLR,OVC,0.00,WeatherDisplay:10.37,2013-03-05 21:59:00,
2013-03-05 17:04:00,75.8,47.7,30.03,West,281,3.0,3.5,37,0.00,CLR,OVC,0.00,WeatherDisplay:10.37,2013-03-05 22:04:00,
2013-03-05 17:09:00,75.8,46.2,30.02,SW,222,2.0,12.0,35,0.00,CLR,OVC,0.00,WeatherDisplay:10.37,2013-03-05 22:09:00,
2013-03-05 17:14:00,75.8,46.2,30.02,WSW,239,7.0,7.0,35,0.00,CLR,OVC,0.00,WeatherDisplay:10.37,2013-03-05 22:14:00,
2013-03-05 17:19:00,75.8,46.2,30.02,SW,222,2.0,11.5,35,0.00,CLR,OVC,0.00,WeatherDisplay:10.37,2013-03-05 22:19:00,
2013-03-05 17:24:00,75.4,45.1,30.02,SSW,209,8.5,11.5,34,0.00,CLR,OVC,0.00,WeatherDisplay:10.37,2013-03-05 22:24:00,
2013-03-05 17:29:00,75.1,45.6,30.01,SW,220,11.0,17.0,35,0.00,CLR,OVC,0.00,WeatherDisplay:10.37,2013-03-05 22:29:00,
2013-03-05 17:34:00,74.9,45.4,30.02,SW,230,6.0,6.9,35,0.00,CLR,OVC,0.00,WeatherDisplay:10.37,2013-03-05 22:34:00,
2013-03-05 17:39:00,75.1,46.3,30.02,SSW,210,17.0,17.0,36,0.00,CLR,OVC,0.00,WeatherDisplay:10.37,2013-03-05 22:39:00,
2013-03-05 17:44:00,74.0,45.3,30.02,WSW,239,10.0,10.4,36,0.00,CLR,OVC,0.00,WeatherDisplay:10.37,2013-03-05 22:44:00,
2013-03-05 17:49:00,74.0,46.1,30.02,SSW,206,5.0,10.4,37,0.00,CLR,OVC,0.00,WeatherDisplay:10.37,2013-03-05 22:49:00,
2013-03-05 17:54:00,74.0,46.1,30.02,SSW,206,5.0,10.4,37,0.00,CLR,OVC,0.00,WeatherDisplay:10.37,2013-03-05 22:54:00,
2013-03-05 17:59:00,73.0,45.9,30.02,SSW,205,10.0,12.7,38,0.00,CLR,OVC,0.00,WeatherDisplay:10.37,2013-03-05 22:59:00,
2013-03-05 18:05:00,72.7,46.3,30.02,WSW,250,5.2,6.9,39,0.00,CLR,OVC,0.00,WeatherDisplay:10.37,2013-03-05 23:05:00,
2013-03-05 18:10:00,72.7,46.3,30.02,WSW,248,6.0,7.0,39,0.00,CLR,OVC,0.00,WeatherDisplay:10.37,2013-03-05 23:10:00,
2013-03-05 18:15:00,71.6,46.0,30.01,SW,233,5.0,12.0,40,0.00,CLR,OVC,0.00,WeatherDisplay:10.37,2013-03-05 23:15:00,
2013-03-05 18:20:00,71.0,47.4,30.01,SW,226,7.0,7.0,43,0.00,CLR,OVC,0.00,WeatherDisplay:10.37,2013-03-05 23:20:00,
2013-03-05 18:25:00,70.6,47.0,30.02,SW,220,3.0,6.0,43,0.00,CLR,OVC,0.00,WeatherDisplay:10.37,2013-03-05 23:25:00,
2013-03-05 18:30:00,70.3,46.7,30.01,SW,232,6.0,6.0,43,0.00,CLR,OVC,0.00,WeatherDisplay:10.37,2013-03-05 23:30:00,
2013-03-05 18:35:00,69.9,46.4,30.02,SW,214,9.0,9.0,43,0.00,CLR,OVC,0.00,WeatherDisplay:10.37,2013-03-05 23:35:00,
2013-03-05 18:40:00,69.9,46.4,30.02,SSW,209,9.0,9.0,43,0.00,CLR,OVC,0.00,WeatherDisplay:10.37,2013-03-05 23:40:00,
2013-03-05 18:45:00,68.8,46.6,30.02,SSW,212,6.0,6.0,45,0.00,CLR,OVC,0.00,WeatherDisplay:10.37,2013-03-05 23:45:00,
2013-03-05 18:50:00,68.4,46.2,30.02,SW,216,5.0,5.0,45,0.00,CLR,OVC,0.00,WeatherDisplay:10.37,2013-03-05 23:50:00,
2013-03-05 18:55:00,68.4,46.2,30.02,SW,215,5.0,0.0,45,0.00,CLR,OVC,0.00,WeatherDisplay:10.37,2013-03-05 23:55:00,
2013-03-05 19:00:00,68.4,46.2,30.02,SW,215,5.0,0.0,45,0.00,CLR,OVC,0.00,WeatherDisplay:10.37,2013-03-06 00:00:00,
2013-03-05 19:05:00,68.4,46.2,30.02,SW,215,4.5,0.0,45,0.00,CLR,OVC,0.00,WeatherDisplay:10.37,2013-03-06 00:05:00,
2013-03-05 19:10:00,68.4,46.2,30.02,SW,215,4.5,0.0,45,0.00,CLR,OVC,0.00,WeatherDisplay:10.37,2013-03-06 00:10:00,
2013-03-05 19:15:00,66.6,45.2,30.02,SSW,212,7.0,7.0,46,0.00,CLR,OVC,0.00,WeatherDisplay:10.37,2013-03-06 00:15:00,
2013-03-05 19:20:00,66.6,45.2,30.02,SSW,212,7.0,7.0,46,0.00,CLR,OVC,0.00,WeatherDisplay:10.37,2013-03-06 00:20:00,
2013-03-05 19:25:00,66.3,44.3,30.01,SSW,208,1.0,6.9,45,0.00,CLR,OVC,0.00,WeatherDisplay:10.37,2013-03-06 00:25:00,
2013-03-05 19:30:00,66.1,44.1,30.01,SSW,206,5.0,5.8,45,0.00,CLR,OVC,0.00,WeatherDisplay:10.37,2013-03-06 00:30:00,
2013-03-05 19:35:00,65.6,43.7,30.01,SSW,213,9.0,9.0,45,0.00,CLR,OVC,0.00,WeatherDisplay:10.37,2013-03-06 00:35:00,
2013-03-05 19:40:00,66.1,44.1,30.01,SSW,206,5.0,5.8,45,0.00,CLR,OVC,0.00,WeatherDisplay:10.37,2013-03-06 00:40:00,
2013-03-05 19:45:00,65.6,44.3,30.01,SSW,213,10.0,11.5,46,0.00,CLR,OVC,0.00,WeatherDisplay:10.37,2013-03-06 00:45:00,
2013-03-05 19:50:00,65.0,43.7,30.01,SW,217,6.7,11.5,46,0.00,CLR,OVC,0.00,WeatherDisplay:10.37,2013-03-06 00:50:00,
2013-03-05 19:55:00,65.0,43.7,30.01,SW,217,6.7,11.5,46,0.00,CLR,OVC,0.00,WeatherDisplay:10.37,2013-03-06 00:55:00,
2013-03-05 20:00:00,64.8,44.1,30.00,SSW,203,8.0,9.2,47,0.00,CLR,OVC,0.00,WeatherDisplay:10.37,2013-03-06 01:00:00,
2013-03-05 20:05:00,64.8,44.1,30.00,SSW,203,8.0,10.4,47,0.00,CLR,OVC,0.00,WeatherDisplay:10.37,2013-03-06 01:05:00,
2013-03-05 20:10:00,64.7,44.5,30.00,SSW,212,10.0,11.5,48,0.00,CLR,OVC,0.00,WeatherDisplay:10.37,2013-03-06 01:10:00,
2013-03-05 20:15:00,64.3,44.7,30.00,SSW,212,10.0,10.0,49,0.00,CLR,OVC,0.00,WeatherDisplay:10.37,2013-03-06 01:15:00,
2013-03-05 20:20:00,63.9,45.4,30.00,SSW,208,5.9,8.0,51,0.00,CLR,OVC,0.00,WeatherDisplay:10.37,2013-03-06 01:20:00,
2013-03-05 20:25:00,64.3,44.7,30.00,SSW,212,10.0,10.0,49,0.00,CLR,OVC,0.00,WeatherDisplay:10.37,2013-03-06 01:25:00,
2013-03-05 20:30:00,64.3,44.7,30.00,SSW,212,10.0,10.0,49,0.00,CLR,OVC,0.00,WeatherDisplay:10.37,2013-03-06 01:30:00,
2013-03-05 20:35:00,63.2,47.7,30.00,SW,215,11.5,11.5,57,0.00,CLR,OVC,0.00,WeatherDisplay:10.37,2013-03-06 01:35:00,
2013-03-05 20:40:00,63.1,48.1,30.00,SSW,195,12.0,12.0,58,0.00,CLR,OVC,0.00,WeatherDisplay:10.37,2013-03-06 01:40:00,
2013-03-05 20:45:00,63.1,48.1,30.00,SSW,195,12.0,12.0,58,0.00,CLR,OVC,0.00,WeatherDisplay:10.37,2013-03-06 01:45:00,
2013-03-05 20:50:00,62.6,49.4,30.00,SW,220,8.0,8.1,62,0.00,CLR,OVC,0.00,WeatherDisplay:10.37,2013-03-06 01:50:00,
2013-03-05 20:55:00,62.4,50.1,30.00,SW,215,6.0,6.9,64,0.00,CLR,OVC,0.00,WeatherDisplay:10.37,2013-03-06 01:55:00,
2013-03-05 21:00:00,62.4,50.9,30.00,WSW,244,7.0,7.0,66,0.00,CLR,OVC,0.00,WeatherDisplay:10.37,2013-03-06 02:00:00,
2013-03-05 21:05:00,62.3,51.2,30.00,SSW,213,7.0,8.1,67,0.00,CLR,OVC,0.00,WeatherDisplay:10.37,2013-03-06 02:05:00,
2013-03-05 21:10:00,62.1,51.4,30.00,SSW,208,12.0,12.0,68,0.00,CLR,OVC,0.00,WeatherDisplay:10.37,2013-03-06 02:10:00,
2013-03-05 21:15:00,62.1,51.4,30.00,SSW,208,12.0,12.0,68,0.00,CLR,OVC,0.00,WeatherDisplay:10.37,2013-03-06 02:15:00,
2013-03-05 21:20:00,62.0,52.1,30.00,SSW,210,6.2,10.4,70,0.00,CLR,OVC,0.00,WeatherDisplay:10.37,2013-03-06 02:20:00,
2013-03-05 21:25:00,61.8,52.3,30.00,SSW,208,8.0,8.1,71,0.00,CLR,OVC,0.00,WeatherDisplay:10.37,2013-03-06 02:25:00,
2013-03-05 21:30:00,61.8,52.7,30.00,SSW,210,7.0,7.0,72,0.00,CLR,OVC,0.00,WeatherDisplay:10.37,2013-03-06 02:30:00,
2013-03-05 21:35:00,61.6,52.9,30.00,SW,220,6.8,14.0,73,0.00,CLR,OVC,0.00,WeatherDisplay:10.37,2013-03-06 02:35:00,
2013-03-05 21:40:00,61.8,53.4,30.00,SW,215,7.0,9.0,74,0.00,CLR,OVC,0.00,WeatherDisplay:10.37,2013-03-06 02:40:00,
2013-03-05 21:45:00,61.8,53.1,30.00,SW,215,14.0,14.0,73,0.00,CLR,OVC,0.00,WeatherDisplay:10.37,2013-03-06 02:45:00,
2013-03-05 21:50:00,61.6,53.6,30.00,SSW,208,12.0,12.0,75,0.00,CLR,OVC,0.00,WeatherDisplay:10.37,2013-03-06 02:50:00,
2013-03-05 21:56:00,61.6,53.6,30.00,SW,226,9.0,9.0,75,0.00,CLR,OVC,0.00,WeatherDisplay:10.37,2013-03-06 02:56:00,
2013-03-05 22:01:00,61.6,53.6,30.00,SW,226,9.0,9.0,75,0.00,CLR,OVC,0.00,WeatherDisplay:10.37,2013-03-06 03:01:00,
2013-03-05 22:06:00,61.6,54.3,30.00,WSW,244,6.7,6.9,77,0.00,CLR,OVC,0.00,WeatherDisplay:10.37,2013-03-06 03:06:00,
2013-03-05 22:11:00,61.6,54.3,30.00,SW,233,5.6,5.6,77,0.00,CLR,OVC,0.00,WeatherDisplay:10.37,2013-03-06 03:11:00,
2013-03-05 22:16:00,61.6,54.3,30.00,SW,233,5.6,5.6,77,0.00,CLR,OVC,0.00,WeatherDisplay:10.37,2013-03-06 03:16:00,
2013-03-05 22:21:00,61.8,54.5,30.00,SW,220,5.4,5.4,77,0.00,CLR,OVC,0.00,WeatherDisplay:10.37,2013-03-06 03:21:00,
2013-03-05 22:26:00,61.6,54.3,30.00,SW,233,5.6,5.6,77,0.00,CLR,OVC,0.00,WeatherDisplay:10.37,2013-03-06 03:26:00,
2013-03-05 22:31:00,62.0,55.1,30.00,WSW,243,6.3,6.9,78,0.00,CLR,OVC,0.00,WeatherDisplay:10.37,2013-03-06 03:31:00,
2013-03-05 22:36:00,62.3,55.4,30.00,SW,220,7.0,7.0,78,0.00,CLR,OVC,0.00,WeatherDisplay:10.37,2013-03-06 03:36:00,
2013-03-05 22:41:00,62.1,55.2,30.00,SSW,213,8.0,8.1,78,0.00,CLR,OVC,0.00,WeatherDisplay:10.37,2013-03-06 03:41:00,
2013-03-05 22:46:00,62.4,55.1,30.00,SW,215,4.0,6.9,77,0.00,CLR,OVC,0.00,WeatherDisplay:10.37,2013-03-06 03:46:00,
2013-03-05 22:51:00,62.4,55.1,30.00,SSW,203,8.0,8.1,77,0.00,CLR,OVC,0.00,WeatherDisplay:10.37,2013-03-06 03:51:00,
2013-03-05 22:57:00,62.6,55.6,30.00,SSW,210,7.0,10.4,78,0.00,CLR,OVC,0.00,WeatherDisplay:10.37,2013-03-06 03:57:00,
2013-03-05 23:02:00,62.6,55.6,30.00,SSW,210,7.0,10.4,78,0.00,CLR,OVC,0.00,WeatherDisplay:10.37,2013-03-06 04:02:00,
2013-03-05 23:07:00,62.6,55.6,30.00,SSW,210,7.0,10.4,78,0.00,CLR,OVC,0.00,WeatherDisplay:10.37,2013-03-06 04:07:00,
2013-03-05 23:12:00,62.9,55.9,29.99,SSW,210,13.0,13.0,78,0.00,CLR,OVC,0.00,WeatherDisplay:10.37,2013-03-06 04:12:00,
2013-03-05 23:17:00,62.9,55.9,29.99,SW,215,10.0,10.4,78,0.00,CLR,OVC,0.00,WeatherDisplay:10.37,2013-03-06 04:17:00,
2013-03-05 23:22:00,62.9,55.9,29.99,SW,234,6.3,16.1,78,0.00,CLR,OVC,0.00,WeatherDisplay:10.37,2013-03-06 04:22:00,
2013-03-05 23:27:00,62.7,55.7,29.99,SSW,213,7.7,13.8,78,0.00,CLR,OVC,0.00,WeatherDisplay:10.37,2013-03-06 04:27:00,
2013-03-05 23:32:00,62.9,55.9,29.99,SSW,199,12.0,12.7,78,0.00,CLR,OVC,0.00,WeatherDisplay:10.37,2013-03-06 04:32:00,
2013-03-05 23:37:00,62.6,56.0,29.99,SW,234,13.0,13.0,79,0.00,CLR,OVC,0.00,WeatherDisplay:10.37,2013-03-06 04:37:00,
2013-03-05 23:42:00,62.4,55.8,29.99,SW,232,11.9,12.7,79,0.00,CLR,OVC,0.00,WeatherDisplay:10.37,2013-03-06 04:42:00,
2013-03-05 23:47:00,62.4,55.8,29.99,SSW,206,6.0,11.5,79,0.00,CLR,OVC,0.00,WeatherDisplay:10.37,2013-03-06 04:47:00,
2013-03-05 23:52:00,62.1,56.2,29.99,SSW,212,12.0,12.0,81,0.00,CLR,OVC,0.00,WeatherDisplay:10.37,2013-03-06 04:52:00,
2013-03-05 23:57:00,62.0,56.1,29.98,SSW,203,12.8,16.1,81,0.00,CLR,OVC,0.00,WeatherDisplay:10.37,2013-03-06 04:57:00,